createdAt,value
2023-01-17T00:01:16.485Z,95098.25
2023-01-17T00:04:02.086Z,95108.88
2023-01-17T00:06:47.475Z,95095.00
2023-01-17T00:09:33.572Z,95101.22
2023-01-17T00:12:02.359Z,95099.31
2023-01-17T00:14:29.329Z,95094.56
2023-01-17T00:16:56.273Z,95090.50
2023-01-17T00:19:41.584Z,95093.72
2023-01-17T00:22:41.315Z,95088.72
2023-01-17T00:25:29.560Z,95081.09
2023-01-17T00:27:56.768Z,95090.28
2023-01-17T00:30:23.801Z,95089.63
2023-01-17T00:32:50.681Z,95097.00
2023-01-17T00:35:18.361Z,95101.22
2023-01-17T00:37:45.082Z,95101.91
2023-01-17T00:40:12.129Z,95106.41
2023-01-17T00:42:39.084Z,95108.69
2023-01-17T00:45:25.117Z,95113.53
2023-01-17T00:48:10.287Z,95113.00
2023-01-17T00:50:56.536Z,95118.03
2023-01-17T00:53:41.979Z,95116.25
2023-01-17T00:56:27.594Z,95127.28
2023-01-17T00:59:13.009Z,95130.53
2023-01-17T01:01:58.524Z,95133.81
2023-01-17T01:04:44.121Z,95133.00
2023-01-17T01:07:29.727Z,95137.19
2023-01-17T01:10:15.327Z,95139.66
2023-01-17T01:13:00.746Z,95137.19
2023-01-17T01:15:45.985Z,95141.28
2023-01-17T01:18:31.428Z,95129.19
2023-01-17T01:21:20.790Z,95126.03
2023-01-17T01:24:06.149Z,95133.00
2023-01-17T01:26:51.502Z,95132.16
2023-01-17T01:29:36.588Z,95142.25
2023-01-17T01:32:22.039Z,95144.16
2023-01-17T01:34:48.644Z,95145.22
2023-01-17T01:37:15.356Z,95145.47
2023-01-17T01:39:41.955Z,95161.31
2023-01-17T01:42:15.756Z,95169.28
2023-01-17T01:44:46.979Z,95169.91
2023-01-17T01:47:19.343Z,95176.34
2023-01-17T01:49:46.106Z,95173.50
2023-01-17T01:52:13.686Z,95178.69
2023-01-17T01:54:43.083Z,95179.91
2023-01-17T01:57:12.300Z,95179.38
2023-01-17T01:59:43.027Z,95180.38
2023-01-17T02:02:10.291Z,95176.13
2023-01-17T02:04:37.706Z,95171.38
2023-01-17T02:07:08.335Z,95186.91
2023-01-17T02:09:34.939Z,95184.97
2023-01-17T02:12:02.355Z,95180.91
2023-01-17T02:14:29.201Z,95182.25
2023-01-17T02:16:55.805Z,95184.97
2023-01-17T02:19:31.471Z,95193.69
2023-01-17T02:22:27.537Z,95198.19
2023-01-17T02:24:57.011Z,95185.97
2023-01-17T02:27:46.592Z,95184.06
2023-01-17T02:30:22.128Z,95180.63
2023-01-17T02:32:56.430Z,95179.25
2023-01-17T02:35:41.462Z,95182.81
2023-01-17T02:38:08.368Z,95173.13
2023-01-17T02:40:40.864Z,95174.91
2023-01-17T02:43:10.840Z,95174.34
2023-01-17T02:45:37.579Z,95176.78
2023-01-17T02:48:08.162Z,95183.03
2023-01-17T02:50:57.501Z,95181.94
2023-01-17T02:53:34.879Z,95190.13
2023-01-17T02:56:07.602Z,95191.22
2023-01-17T02:58:41.933Z,95192.56
2023-01-17T03:01:19.756Z,95184.81
2023-01-17T03:03:49.149Z,95176.91
2023-01-17T03:06:19.116Z,95185.47
2023-01-17T03:08:47.271Z,95184.81
2023-01-17T03:11:14.920Z,95181.97
2023-01-17T03:13:42.360Z,95183.34
2023-01-17T03:16:12.934Z,95179.56
2023-01-17T03:18:39.667Z,95188.41
2023-01-17T03:21:06.289Z,95183.91
2023-01-17T03:23:32.904Z,95189.06
2023-01-17T03:25:59.491Z,95179.78
2023-01-17T03:28:26.229Z,95175.19
2023-01-17T03:30:52.742Z,95185.00
2023-01-17T03:33:19.551Z,95185.03
2023-01-17T03:35:46.489Z,95184.22
2023-01-17T03:38:13.155Z,95182.75
2023-01-17T03:40:39.869Z,95191.31
2023-01-17T03:43:06.433Z,95185.59
2023-01-17T03:45:33.193Z,95190.63
2023-01-17T03:48:00.181Z,95192.00
2023-01-17T03:50:26.868Z,95187.25
2023-01-17T03:52:53.507Z,95187.00
2023-01-17T03:55:20.210Z,95190.81
2023-01-17T03:57:46.762Z,95192.69
2023-01-17T04:00:13.584Z,95192.31
2023-01-17T04:02:40.312Z,95190.13
2023-01-17T04:05:07.266Z,95197.09
2023-01-17T04:07:34.080Z,95195.84
2023-01-17T04:10:00.668Z,95197.06
2023-01-17T04:12:27.252Z,95191.91
2023-01-17T04:14:53.817Z,95185.78
2023-01-17T04:17:20.806Z,95183.22
2023-01-17T04:19:47.496Z,95180.22
2023-01-17T04:22:14.314Z,95182.13
2023-01-17T04:24:40.949Z,95181.84
2023-01-17T04:27:07.629Z,95184.56
2023-01-17T04:29:34.199Z,95183.22
2023-01-17T04:32:01.001Z,95187.03
2023-01-17T04:34:27.641Z,95189.72
2023-01-17T04:36:54.223Z,95192.72
2023-01-17T04:39:20.888Z,95206.88
2023-01-17T04:41:47.545Z,95204.69
2023-01-17T04:44:14.367Z,95202.25
2023-01-17T04:46:41.452Z,95201.44
2023-01-17T04:49:08.297Z,95193.00
2023-01-17T04:51:35.277Z,95207.13
2023-01-17T04:54:01.996Z,95202.91
2023-01-17T04:56:28.595Z,95207.41
2023-01-17T04:58:57.075Z,95211.19
2023-01-17T05:01:24.073Z,95215.53
2023-01-17T05:03:50.958Z,95214.97
2023-01-17T05:06:17.825Z,95222.19
2023-01-17T05:08:44.813Z,95226.41
2023-01-17T05:11:11.601Z,95229.56
2023-01-17T05:13:38.465Z,95234.50
2023-01-17T05:16:05.392Z,95242.09
2023-01-17T05:18:32.140Z,95244.41
2023-01-17T05:21:02.708Z,95263.06
2023-01-17T05:23:29.630Z,95265.38
2023-01-17T05:25:56.465Z,95265.91
2023-01-17T05:28:23.421Z,95272.31
2023-01-17T05:30:50.506Z,95268.38
2023-01-17T05:33:17.512Z,95269.72
2023-01-17T05:35:44.443Z,95279.25
2023-01-17T05:38:11.659Z,95278.28
2023-01-17T05:40:38.543Z,95289.84
2023-01-17T05:43:05.356Z,95286.00
2023-01-17T05:45:33.540Z,95289.00
2023-01-17T05:48:01.170Z,95291.88
2023-01-17T05:50:29.888Z,95292.16
2023-01-17T05:52:58.623Z,95294.19
2023-01-17T05:55:26.224Z,95292.56
2023-01-17T05:57:53.421Z,95295.03
2023-01-17T06:00:20.623Z,95300.50
2023-01-17T06:02:48.049Z,95304.56
2023-01-17T06:05:15.226Z,95315.19
2023-01-17T06:07:46.288Z,95309.34
2023-01-17T06:10:14.684Z,95319.28
2023-01-17T06:12:42.461Z,95327.44
2023-01-17T06:15:10.053Z,95325.53
2023-01-17T06:17:37.344Z,95327.31
2023-01-17T06:20:05.569Z,95321.19
2023-01-17T06:22:33.512Z,95329.06
2023-01-17T06:25:01.029Z,95330.03
2023-01-17T06:27:27.903Z,95332.34
2023-01-17T06:29:55.023Z,95326.47
2023-01-17T06:32:22.476Z,95324.97
2023-01-17T06:34:49.423Z,95324.69
2023-01-17T06:37:16.831Z,95342.66
2023-01-17T06:39:43.821Z,95341.28
2023-01-17T06:42:10.854Z,95345.06
2023-01-17T06:44:37.822Z,95346.72
2023-01-17T06:47:04.705Z,95350.78
2023-01-17T06:49:31.680Z,95358.66
2023-01-17T06:51:58.941Z,95356.47
2023-01-17T06:54:26.187Z,95369.81
2023-01-17T06:56:53.182Z,95358.69
2023-01-17T06:59:21.023Z,95356.78
2023-01-17T07:01:48.184Z,95346.19
2023-01-17T07:04:15.500Z,95351.09
2023-01-17T07:06:43.022Z,95358.59
2023-01-17T07:09:09.903Z,95367.16
2023-01-17T07:11:38.245Z,95391.28
2023-01-17T07:14:05.832Z,95410.47
2023-01-17T07:16:35.548Z,95409.09
2023-01-17T07:19:02.862Z,95414.53
2023-01-17T07:21:29.835Z,95408.59
2023-01-17T07:23:56.669Z,95408.72
2023-01-17T07:26:23.585Z,95406.56
2023-01-17T07:28:50.695Z,95398.41
2023-01-17T07:31:17.880Z,95406.84
2023-01-17T07:33:44.719Z,95412.56
2023-01-17T07:36:11.597Z,95419.38
2023-01-17T07:38:40.621Z,95407.53
2023-01-17T07:41:10.924Z,95407.91
2023-01-17T07:43:38.302Z,95399.16
2023-01-17T07:46:07.825Z,95394.59
2023-01-17T07:48:34.790Z,95380.91
2023-01-17T07:51:01.908Z,95378.41
2023-01-17T07:53:30.505Z,95388.09
2023-01-17T07:56:00.972Z,95392.25
2023-01-17T07:58:28.853Z,95384.81
2023-01-17T08:01:01.608Z,95384.28
2023-01-17T08:03:32.547Z,95389.03
2023-01-17T08:05:59.582Z,95402.25
2023-01-17T08:08:27.022Z,95407.69
2023-01-17T08:10:54.060Z,95397.38
2023-01-17T08:13:21.825Z,95395.09
2023-01-17T08:15:49.904Z,95404.00
2023-01-17T08:18:17.742Z,95410.31
2023-01-17T08:20:44.859Z,95419.13
2023-01-17T08:23:12.552Z,95416.22
2023-01-17T08:25:40.152Z,95412.16
2023-01-17T08:28:07.161Z,95411.38
2023-01-17T08:30:34.969Z,95418.28
2023-01-17T08:33:02.310Z,95416.94
2023-01-17T08:35:29.661Z,95408.47
2023-01-17T08:37:57.981Z,95416.56
2023-01-17T08:40:25.121Z,95425.59
2023-01-17T08:42:55.365Z,95423.84
2023-01-17T08:45:22.462Z,95418.97
2023-01-17T08:47:49.743Z,95427.75
2023-01-17T08:50:20.778Z,95418.16
2023-01-17T08:52:51.135Z,95408.34
2023-01-17T08:55:18.223Z,95398.47
2023-01-17T08:57:45.102Z,95409.91
2023-01-17T09:00:12.596Z,95413.47
2023-01-17T09:02:39.438Z,95414.16
2023-01-17T09:05:06.758Z,95417.13
2023-01-17T09:07:34.145Z,95422.84
2023-01-17T09:10:01.157Z,95429.34
2023-01-17T09:12:31.892Z,95427.00
2023-01-17T09:14:59.022Z,95411.41
2023-01-17T09:17:25.892Z,95410.69
2023-01-17T09:19:52.958Z,95409.34
2023-01-17T09:22:19.902Z,95408.09
2023-01-17T09:24:46.873Z,95406.81
2023-01-17T09:27:13.910Z,95406.50
2023-01-17T09:29:41.170Z,95395.00
2023-01-17T09:32:08.063Z,95389.38
2023-01-17T09:34:34.950Z,95380.09
2023-01-17T09:37:02.178Z,95370.47
2023-01-17T09:39:29.745Z,95368.09
2023-01-17T09:42:18.391Z,95362.28
2023-01-17T09:44:52.177Z,95348.75
2023-01-17T09:47:19.392Z,95353.03
2023-01-17T09:49:47.216Z,95357.00
2023-01-17T09:52:24.865Z,95346.25
2023-01-17T09:54:52.069Z,95350.97
2023-01-17T09:57:25.112Z,95350.13
2023-01-17T10:00:05.349Z,95342.53
2023-01-17T10:02:37.084Z,95354.13
2023-01-17T10:05:20.227Z,95356.06
2023-01-17T10:08:05.194Z,95339.53
2023-01-17T10:10:44.797Z,95335.81
2023-01-17T10:13:28.719Z,95340.53
2023-01-17T10:16:02.542Z,95338.13
2023-01-17T10:18:43.940Z,95344.13
2023-01-17T10:21:15.904Z,95364.59
2023-01-17T10:23:45.902Z,95363.66
2023-01-17T10:26:23.842Z,95366.59
2023-01-17T10:28:52.137Z,95348.47
2023-01-17T10:31:26.160Z,95351.22
2023-01-17T10:33:55.273Z,95351.69
2023-01-17T10:36:25.501Z,95357.84
2023-01-17T10:38:54.221Z,95337.72
2023-01-17T10:41:30.708Z,95322.94
2023-01-17T10:43:58.699Z,95323.28
2023-01-17T10:46:29.268Z,95328.66
2023-01-17T10:48:58.278Z,95330.72
2023-01-17T10:51:44.148Z,95344.88
2023-01-17T10:54:18.225Z,95339.00
2023-01-17T10:56:45.268Z,95340.63
2023-01-17T10:59:27.887Z,95330.91
2023-01-17T11:01:55.231Z,95321.78
2023-01-17T11:04:27.189Z,95322.81
2023-01-17T11:07:14.462Z,95314.00
2023-01-17T11:09:43.261Z,95296.09
2023-01-17T11:12:25.831Z,95300.94
2023-01-17T11:14:58.915Z,95286.94
2023-01-17T11:17:27.927Z,95282.38
2023-01-17T11:20:05.982Z,95275.06
2023-01-17T11:22:33.022Z,95272.03
2023-01-17T11:25:00.486Z,95262.88
2023-01-17T11:27:29.273Z,95252.41
2023-01-17T11:30:04.244Z,95241.88
2023-01-17T11:32:34.870Z,95245.44
2023-01-17T11:35:06.142Z,95247.41
2023-01-17T11:37:34.462Z,95242.69
2023-01-17T11:40:08.193Z,95240.06
2023-01-17T11:42:36.707Z,95238.19
2023-01-17T11:45:22.540Z,95220.47
2023-01-17T11:47:50.026Z,95220.97
2023-01-17T11:50:24.861Z,95244.53
2023-01-17T11:52:51.745Z,95240.88
2023-01-17T11:55:23.342Z,95246.59
2023-01-17T11:57:51.181Z,95227.25
2023-01-17T12:00:50.653Z,95221.69
2023-01-17T12:03:27.876Z,95217.81
2023-01-17T12:05:58.301Z,95209.03
2023-01-17T12:08:43.504Z,95195.88
2023-01-17T12:11:14.018Z,95199.41
2023-01-17T12:14:10.307Z,95213.69
2023-01-17T12:16:47.580Z,95215.03
2023-01-17T12:19:20.781Z,95223.53
2023-01-17T12:22:06.066Z,95228.28
2023-01-17T12:24:35.983Z,95222.81
2023-01-17T12:27:03.136Z,95226.94
2023-01-17T12:29:39.747Z,95223.44
2023-01-17T12:32:06.900Z,95217.63
2023-01-17T12:34:39.501Z,95213.00
2023-01-17T12:37:12.865Z,95204.75
2023-01-17T12:39:42.888Z,95197.50
2023-01-17T12:42:15.102Z,95188.97
2023-01-17T12:44:48.196Z,95180.69
2023-01-17T12:47:16.545Z,95181.19
2023-01-17T12:50:02.267Z,95188.50
2023-01-17T12:52:49.105Z,95185.03
2023-01-17T12:55:18.763Z,95176.59
2023-01-17T12:57:50.863Z,95171.72
2023-01-17T13:00:23.529Z,95175.50
2023-01-17T13:02:55.748Z,95165.78
2023-01-17T13:05:26.328Z,95162.34
2023-01-17T13:08:05.256Z,95162.19
2023-01-17T13:10:32.275Z,95157.59
2023-01-17T13:13:03.822Z,95155.94
2023-01-17T13:15:35.820Z,95137.16
2023-01-17T13:18:23.561Z,95119.97
2023-01-17T13:21:06.183Z,95124.53
2023-01-17T13:23:51.748Z,95119.63
2023-01-17T13:26:42.143Z,95114.81
2023-01-17T13:29:20.860Z,95101.00
2023-01-17T13:31:58.191Z,95089.81
2023-01-17T13:34:26.156Z,95081.34
2023-01-17T13:37:13.189Z,95070.66
2023-01-17T13:40:15.585Z,95059.91
2023-01-17T13:42:45.505Z,95068.19
2023-01-17T13:45:20.069Z,95066.22
2023-01-17T13:47:47.031Z,95066.06
2023-01-17T13:50:32.442Z,95058.44
2023-01-17T13:53:00.955Z,95054.69
2023-01-17T13:55:47.260Z,95050.28
2023-01-17T13:58:28.183Z,95050.59
2023-01-17T14:00:56.247Z,95046.69
2023-01-17T14:03:41.820Z,95034.03
2023-01-17T14:06:27.790Z,95028.81
2023-01-17T14:09:01.103Z,95028.81
2023-01-17T14:11:28.293Z,95012.09
2023-01-17T14:13:56.303Z,94999.44
2023-01-17T14:16:23.369Z,94988.44
2023-01-17T14:18:50.468Z,94977.06
2023-01-17T14:21:28.142Z,94968.13
2023-01-17T14:23:55.182Z,94962.28
2023-01-17T14:26:41.501Z,94971.53
2023-01-17T14:29:27.024Z,94970.25
2023-01-17T14:32:04.141Z,94968.94
2023-01-17T14:34:32.783Z,94972.81
2023-01-17T14:37:14.615Z,94972.81
2023-01-17T14:39:46.470Z,94968.44
2023-01-17T14:42:17.512Z,94967.28
2023-01-17T14:44:48.781Z,94955.94
2023-01-17T14:47:16.141Z,94960.97
2023-01-17T14:49:43.504Z,94943.59
2023-01-17T14:52:17.594Z,94957.72
2023-01-17T14:54:48.301Z,94954.78
2023-01-17T14:57:23.214Z,94952.03
2023-01-17T14:59:51.023Z,94955.44
2023-01-17T15:02:18.984Z,94956.59
2023-01-17T15:04:53.903Z,94967.25
2023-01-17T15:07:21.023Z,94971.97
2023-01-17T15:09:49.004Z,94969.06
2023-01-17T15:12:16.630Z,94970.84
2023-01-17T15:14:46.069Z,94975.38
2023-01-17T15:17:18.948Z,94972.94
2023-01-17T15:19:49.039Z,94971.75
2023-01-17T15:22:17.586Z,94969.00
2023-01-17T15:24:46.301Z,94967.69
2023-01-17T15:27:17.030Z,94969.31
2023-01-17T15:29:47.502Z,94967.84
2023-01-17T15:32:22.789Z,94978.56
2023-01-17T15:34:51.424Z,94968.50
2023-01-17T15:37:25.512Z,94978.22
2023-01-17T15:39:52.462Z,94969.13
2023-01-17T15:42:25.183Z,94977.88
2023-01-17T15:44:54.629Z,94972.34
2023-01-17T15:47:27.826Z,94968.50
2023-01-17T15:49:55.826Z,94973.69
2023-01-17T15:52:22.701Z,94974.63
2023-01-17T15:55:13.266Z,94974.28
2023-01-17T15:57:40.624Z,94970.38
2023-01-17T16:00:07.984Z,94967.63
2023-01-17T16:02:36.003Z,94964.53
2023-01-17T16:05:23.353Z,94959.97
2023-01-17T16:07:55.902Z,94972.28
2023-01-17T16:10:25.573Z,94972.63
2023-01-17T16:12:53.961Z,94977.03
2023-01-17T16:15:24.033Z,94988.53
2023-01-17T16:17:56.863Z,94987.41
2023-01-17T16:20:29.585Z,94974.88
2023-01-17T16:22:56.232Z,94975.66
2023-01-17T16:25:24.300Z,94978.25
2023-01-17T16:27:51.494Z,94974.50
2023-01-17T16:30:19.969Z,94975.31
2023-01-17T16:32:48.810Z,94982.94
2023-01-17T16:35:25.869Z,94987.78
2023-01-17T16:37:54.382Z,94984.53
2023-01-17T16:40:22.196Z,94994.22
2023-01-17T16:42:48.984Z,94993.72
2023-01-17T16:45:16.028Z,94993.00
2023-01-17T16:47:43.784Z,94992.31
2023-01-17T16:50:11.457Z,94998.50
2023-01-17T16:52:38.343Z,94982.94
2023-01-17T16:55:06.785Z,94975.31
2023-01-17T16:57:33.550Z,94971.56
2023-01-17T17:00:00.179Z,94960.53
2023-01-17T17:02:26.707Z,94952.41
2023-01-17T17:04:53.359Z,94950.41
2023-01-17T17:07:20.083Z,94948.50
2023-01-17T17:09:46.610Z,94940.97
2023-01-17T17:12:13.525Z,94926.06
2023-01-17T17:14:41.055Z,94915.03
2023-01-17T17:17:08.162Z,94918.09
2023-01-17T17:19:34.806Z,94926.06
2023-01-17T17:22:02.050Z,94930.25
2023-01-17T17:24:29.061Z,94930.72
2023-01-17T17:26:56.181Z,94916.50
2023-01-17T17:29:22.815Z,94911.13
2023-01-17T17:31:49.764Z,94914.56
2023-01-17T17:34:16.308Z,94916.63
2023-01-17T17:36:43.207Z,94918.09
2023-01-17T17:39:14.788Z,94925.22
2023-01-17T17:41:42.482Z,94929.91
2023-01-17T17:44:09.998Z,94931.19
2023-01-17T17:46:37.258Z,94934.09
2023-01-17T17:49:04.288Z,94925.22
2023-01-17T17:51:32.178Z,94925.00
2023-01-17T17:54:00.972Z,94921.78
2023-01-17T17:56:28.753Z,94929.91
2023-01-17T17:58:55.463Z,94930.56
2023-01-17T18:01:25.208Z,94928.19
2023-01-17T18:03:52.307Z,94927.88
2023-01-17T18:06:19.657Z,94922.03
2023-01-17T18:08:46.287Z,94905.59
2023-01-17T18:11:19.077Z,94907.66
2023-01-17T18:13:52.804Z,94903.38
2023-01-17T18:16:29.780Z,94916.34
2023-01-17T18:18:58.292Z,94916.69
2023-01-17T18:21:29.473Z,94925.28
2023-01-17T18:23:58.734Z,94919.81
2023-01-17T18:26:28.219Z,94912.78
2023-01-17T18:28:55.455Z,94904.88
2023-01-17T18:31:24.271Z,94900.47
2023-01-17T18:33:55.375Z,94906.41
2023-01-17T18:36:23.533Z,94902.25
2023-01-17T18:38:50.894Z,94896.72
2023-01-17T18:41:27.782Z,94890.88
2023-01-17T18:43:57.694Z,94902.34
2023-01-17T18:46:26.145Z,94900.56
2023-01-17T18:48:55.230Z,94903.16
2023-01-17T18:51:21.911Z,94900.25
2023-01-17T18:53:49.115Z,94895.16
2023-01-17T18:56:17.855Z,94895.97
2023-01-17T18:58:45.226Z,94891.75
2023-01-17T19:01:16.776Z,94900.31
2023-01-17T19:03:44.710Z,94898.41
2023-01-17T19:06:14.631Z,94889.44
2023-01-17T19:08:41.652Z,94888.50
2023-01-17T19:11:08.858Z,94881.22
2023-01-17T19:13:36.585Z,94874.69
2023-01-17T19:16:05.061Z,94875.66
2023-01-17T19:18:31.994Z,94870.81
2023-01-17T19:21:08.600Z,94872.00
2023-01-17T19:23:36.202Z,94862.22
2023-01-17T19:26:03.624Z,94872.91
2023-01-17T19:28:30.593Z,94867.41
2023-01-17T19:31:07.909Z,94874.47
2023-01-17T19:33:35.855Z,94879.38
2023-01-17T19:36:03.814Z,94879.50
2023-01-17T19:38:32.003Z,94868.34
2023-01-17T19:41:06.082Z,94866.44
2023-01-17T19:43:32.603Z,94859.31
2023-01-17T19:45:59.650Z,94855.53
2023-01-17T19:48:26.944Z,94842.16
2023-01-17T19:50:54.656Z,94845.53
2023-01-17T19:53:24.300Z,94847.00
2023-01-17T19:55:50.939Z,94854.78
2023-01-17T19:58:17.472Z,94853.31
2023-01-17T20:00:46.621Z,94849.56
2023-01-17T20:03:13.431Z,94854.28
2023-01-17T20:05:39.970Z,94857.34
2023-01-17T20:08:06.815Z,94852.47
2023-01-17T20:10:33.509Z,94863.78
2023-01-17T20:13:00.974Z,94860.69
2023-01-17T20:15:27.979Z,94860.22
2023-01-17T20:17:55.846Z,94858.59
2023-01-17T20:20:22.813Z,94848.22
2023-01-17T20:22:50.031Z,94836.47
2023-01-17T20:25:16.813Z,94831.59
2023-01-17T20:27:44.448Z,94826.94
2023-01-17T20:30:20.061Z,94832.78
2023-01-17T20:32:47.229Z,94829.53
2023-01-17T20:35:13.665Z,94830.22
2023-01-17T20:37:40.556Z,94817.94
2023-01-17T20:40:07.341Z,94821.84
2023-01-17T20:42:36.044Z,94824.56
2023-01-17T20:45:04.395Z,94825.84
2023-01-17T20:47:31.124Z,94819.03
2023-01-17T20:49:57.744Z,94819.38
2023-01-17T20:52:24.191Z,94818.78
2023-01-17T20:54:51.855Z,94817.16
2023-01-17T20:57:18.560Z,94805.97
2023-01-17T20:59:46.066Z,94806.97
2023-01-17T21:02:12.730Z,94813.16
2023-01-17T21:04:39.470Z,94817.34
2023-01-17T21:07:06.305Z,94807.50
2023-01-17T21:09:33.378Z,94815.09
2023-01-17T21:12:01.803Z,94816.75
2023-01-17T21:14:28.983Z,94813.97
2023-01-17T21:16:56.144Z,94806.38
2023-01-17T21:19:24.098Z,94808.16
2023-01-17T21:21:51.540Z,94805.06
2023-01-17T21:24:19.607Z,94801.34
2023-01-17T21:26:46.852Z,94793.72
2023-01-17T21:29:15.811Z,94791.31
2023-01-17T21:31:42.705Z,94801.19
2023-01-17T21:34:10.802Z,94815.00
2023-01-17T21:36:38.588Z,94827.59
2023-01-17T21:39:07.308Z,94820.28
2023-01-17T21:41:35.129Z,94814.28
2023-01-17T21:44:03.071Z,94809.91
2023-01-17T21:46:30.458Z,94801.47
2023-01-17T21:48:57.676Z,94800.06
2023-01-17T21:51:24.576Z,94792.50
2023-01-17T21:53:51.058Z,94792.31
2023-01-17T21:56:35.958Z,94798.28
2023-01-17T21:59:02.490Z,94810.91
2023-01-17T22:01:32.082Z,94799.94
2023-01-17T22:04:00.103Z,94791.84
2023-01-17T22:06:28.533Z,94790.66
2023-01-17T22:08:55.242Z,94797.00
2023-01-17T22:11:23.728Z,94782.78
2023-01-17T22:13:50.322Z,94768.19
2023-01-17T22:16:18.852Z,94770.97
2023-01-17T22:18:45.937Z,94764.47
2023-01-17T22:21:16.808Z,94776.28
2023-01-17T22:24:01.711Z,94785.19
2023-01-17T22:26:29.883Z,94778.53
2023-01-17T22:28:56.689Z,94774.31
2023-01-17T22:31:24.733Z,94781.13
2023-01-17T22:33:55.850Z,94787.91
2023-01-17T22:36:22.941Z,94780.66
2023-01-17T22:38:49.659Z,94784.06
2023-01-17T22:41:17.873Z,94792.16
2023-01-17T22:43:46.732Z,94779.03
2023-01-17T22:46:14.713Z,94777.56
2023-01-17T22:48:41.563Z,94770.44
2023-01-17T22:51:09.315Z,94770.75
2023-01-17T22:53:39.579Z,94764.94
2023-01-17T22:56:07.217Z,94762.66
2023-01-17T22:58:34.142Z,94752.63
2023-01-17T23:01:07.274Z,94754.75
2023-01-17T23:03:35.147Z,94751.38
2023-01-17T23:06:13.327Z,94754.09
2023-01-17T23:08:41.803Z,94767.53
2023-01-17T23:11:39.863Z,94767.72
2023-01-17T23:14:08.125Z,94762.66
2023-01-17T23:16:53.559Z,94764.28
2023-01-17T23:19:23.648Z,94760.75
2023-01-17T23:22:10.527Z,94760.75
2023-01-17T23:24:43.437Z,94753.13
2023-01-17T23:27:30.561Z,94751.00
2023-01-17T23:29:57.728Z,94755.38
2023-01-17T23:32:25.158Z,94754.56
2023-01-17T23:34:52.201Z,94753.59
2023-01-17T23:37:19.649Z,94755.50
2023-01-17T23:39:46.629Z,94749.06
2023-01-17T23:42:32.019Z,94752.25
2023-01-17T23:44:59.078Z,94747.91
2023-01-17T23:47:26.137Z,94753.09
2023-01-17T23:49:53.163Z,94743.22
2023-01-17T23:52:20.368Z,94746.78
2023-01-17T23:54:48.768Z,94739.16
2023-01-17T23:57:15.351Z,94745.16
2023-01-17T23:59:41.860Z,94742.56
